sensor_id;sensor_type;location;lat;lon;timestamp;temperature;humidity
46562;DHT22;32289;42.688;23.330;2023-06-19T00:01:27;17.40;99.90
46562;DHT22;32289;42.688;23.330;2023-06-19T00:05:09;17.30;99.90
46562;DHT22;32289;42.688;23.330;2023-06-19T00:09:16;17.40;99.90
46562;DHT22;32289;42.688;23.330;2023-06-19T00:12:57;17.50;99.90
46562;DHT22;32289;42.688;23.330;2023-06-19T00:16:38;17.50;99.90
46562;DHT22;32289;42.688;23.330;2023-06-19T00:20:26;17.50;99.90
46562;DHT22;32289;42.688;23.330;2023-06-19T00:24:07;17.50;99.90
46562;DHT22;32289;42.688;23.330;2023-06-19T00:28:04;17.60;99.90
46562;DHT22;32289;42.688;23.330;2023-06-19T00:31:44;17.40;99.90
46562;DHT22;32289;42.688;23.330;2023-06-19T00:35:25;17.30;99.90
46562;DHT22;32289;42.688;23.330;2023-06-19T00:39:08;17.30;99.90
46562;DHT22;32289;42.688;23.330;2023-06-19T00:42:49;17.30;99.90
46562;DHT22;32289;42.688;23.330;2023-06-19T00:46:29;17.30;99.90
46562;DHT22;32289;42.688;23.330;2023-06-19T00:50:18;17.20;99.90
46562;DHT22;32289;42.688;23.330;2023-06-19T00:53:58;17.10;99.90
46562;DHT22;32289;42.688;23.330;2023-06-19T00:57:45;17.00;99.90
46562;DHT22;32289;42.688;23.330;2023-06-19T01:01:26;16.90;99.90
46562;DHT22;32289;42.688;23.330;2023-06-19T01:05:25;16.80;99.90
46562;DHT22;32289;42.688;23.330;2023-06-19T01:09:08;16.70;99.90
46562;DHT22;32289;42.688;23.330;2023-06-19T01:13:13;16.60;99.90
46562;DHT22;32289;42.688;23.330;2023-06-19T01:16:55;16.60;99.90
46562;DHT22;32289;42.688;23.330;2023-06-19T01:20:36;16.50;99.90
46562;DHT22;32289;42.688;23.330;2023-06-19T01:24:17;16.40;99.90
46562;DHT22;32289;42.688;23.330;2023-06-19T01:40:43;16.10;99.90
46562;DHT22;32289;42.688;23.330;2023-06-19T01:48:43;16.00;99.90
46562;DHT22;32289;42.688;23.330;2023-06-19T01:52:24;15.90;99.90
46562;DHT22;32289;42.688;23.330;2023-06-19T01:56:05;15.80;99.90
46562;DHT22;32289;42.688;23.330;2023-06-19T01:59:47;15.80;99.90
46562;DHT22;32289;42.688;23.330;2023-06-19T02:03:28;15.80;99.90
46562;DHT22;32289;42.688;23.330;2023-06-19T02:07:27;15.70;99.90
46562;DHT22;32289;42.688;23.330;2023-06-19T02:11:07;15.60;99.90
46562;DHT22;32289;42.688;23.330;2023-06-19T02:24:15;15.40;99.90
46562;DHT22;32289;42.688;23.330;2023-06-19T02:32:17;15.40;99.90
46562;DHT22;32289;42.688;23.330;2023-06-19T02:36:04;15.30;99.90
46562;DHT22;32289;42.688;23.330;2023-06-19T02:39:45;15.30;99.90
46562;DHT22;32289;42.688;23.330;2023-06-19T02:48:03;15.10;99.90
46562;DHT22;32289;42.688;23.330;2023-06-19T02:51:44;15.00;99.90
46562;DHT22;32289;42.688;23.330;2023-06-19T02:55:24;14.90;99.90
46562;DHT22;32289;42.688;23.330;2023-06-19T02:59:05;14.90;99.90
46562;DHT22;32289;42.688;23.330;2023-06-19T03:02:46;15.00;99.90
46562;DHT22;32289;42.688;23.330;2023-06-19T03:06:28;14.80;99.90
46562;DHT22;32289;42.688;23.330;2023-06-19T03:10:09;14.80;99.90
46562;DHT22;32289;42.688;23.330;2023-06-19T03:18:27;14.70;99.90
46562;DHT22;32289;42.688;23.330;2023-06-19T03:22:08;14.80;99.90
46562;DHT22;32289;42.688;23.330;2023-06-19T03:25:48;14.80;99.90
46562;DHT22;32289;42.688;23.330;2023-06-19T03:29:29;14.90;99.90
46562;DHT22;32289;42.688;23.330;2023-06-19T03:33:09;14.90;99.90
46562;DHT22;32289;42.688;23.330;2023-06-19T03:36:50;15.10;99.90
46562;DHT22;32289;42.688;23.330;2023-06-19T03:40:31;15.20;99.90
46562;DHT22;32289;42.688;23.330;2023-06-19T03:44:42;15.20;99.90
46562;DHT22;32289;42.688;23.330;2023-06-19T03:48:23;15.70;99.90
46562;DHT22;32289;42.688;23.330;2023-06-19T03:56:40;17.40;99.90
46562;DHT22;32289;42.688;23.330;2023-06-19T04:00:21;18.50;99.90
46562;DHT22;32289;42.688;23.330;2023-06-19T04:04:02;18.80;99.90
46562;DHT22;32289;42.688;23.330;2023-06-19T04:08:05;19.10;99.90
46562;DHT22;32289;42.688;23.330;2023-06-19T04:11:46;19.50;99.90
46562;DHT22;32289;42.688;23.330;2023-06-19T04:15:27;20.20;99.90
46562;DHT22;32289;42.688;23.330;2023-06-19T04:19:07;20.10;99.90
46562;DHT22;32289;42.688;23.330;2023-06-19T04:22:48;21.30;99.90
46562;DHT22;32289;42.688;23.330;2023-06-19T04:26:29;21.20;99.90
46562;DHT22;32289;42.688;23.330;2023-06-19T04:34:43;21.80;99.90
46562;DHT22;32289;42.688;23.330;2023-06-19T04:38:26;22.10;99.90
46562;DHT22;32289;42.688;23.330;2023-06-19T04:42:07;22.10;99.60
46562;DHT22;32289;42.688;23.330;2023-06-19T04:45:49;21.80;99.30
46562;DHT22;32289;42.688;23.330;2023-06-19T04:49:30;22.20;97.40
46562;DHT22;32289;42.688;23.330;2023-06-19T04:53:11;22.90;96.90
46562;DHT22;32289;42.688;23.330;2023-06-19T04:56:52;22.50;91.30
46562;DHT22;32289;42.688;23.330;2023-06-19T05:00:33;23.00;89.80
46562;DHT22;32289;42.688;23.330;2023-06-19T05:04:14;23.10;87.10
46562;DHT22;32289;42.688;23.330;2023-06-19T05:08:18;23.50;85.30
46562;DHT22;32289;42.688;23.330;2023-06-19T05:11:58;22.80;85.20
46562;DHT22;32289;42.688;23.330;2023-06-19T05:15:39;22.90;87.70
46562;DHT22;32289;42.688;23.330;2023-06-19T05:19:19;23.40;89.00
46562;DHT22;32289;42.688;23.330;2023-06-19T05:23:00;23.10;88.50
46562;DHT22;32289;42.688;23.330;2023-06-19T05:26:41;23.10;87.50
46562;DHT22;32289;42.688;23.330;2023-06-19T05:30:21;23.50;84.10
46562;DHT22;32289;42.688;23.330;2023-06-19T05:34:02;23.50;82.30
46562;DHT22;32289;42.688;23.330;2023-06-19T05:37:45;22.70;88.20
46562;DHT22;32289;42.688;23.330;2023-06-19T05:41:26;22.50;90.80
46562;DHT22;32289;42.688;23.330;2023-06-19T05:45:07;22.30;90.60
46562;DHT22;32289;42.688;23.330;2023-06-19T05:48:47;21.80;92.30
46562;DHT22;32289;42.688;23.330;2023-06-19T05:52:28;22.70;88.70
46562;DHT22;32289;42.688;23.330;2023-06-19T05:56:09;22.40;87.90
46562;DHT22;32289;42.688;23.330;2023-06-19T05:59:50;22.60;88.40
46562;DHT22;32289;42.688;23.330;2023-06-19T06:03:31;22.70;88.20
46562;DHT22;32289;42.688;23.330;2023-06-19T06:07:12;23.10;87.90
46562;DHT22;32289;42.688;23.330;2023-06-19T06:10:53;23.20;85.60
46562;DHT22;32289;42.688;23.330;2023-06-19T06:14:42;23.80;83.30
46562;DHT22;32289;42.688;23.330;2023-06-19T06:18:23;23.80;82.20
46562;DHT22;32289;42.688;23.330;2023-06-19T06:22:04;23.80;82.20
46562;DHT22;32289;42.688;23.330;2023-06-19T06:25:45;23.10;84.30
46562;DHT22;32289;42.688;23.330;2023-06-19T06:29:26;23.40;87.90
46562;DHT22;32289;42.688;23.330;2023-06-19T06:33:07;23.30;88.00
46562;DHT22;32289;42.688;23.330;2023-06-19T06:36:47;23.70;82.80
46562;DHT22;32289;42.688;23.330;2023-06-19T06:40:47;24.30;81.10
46562;DHT22;32289;42.688;23.330;2023-06-19T06:44:28;25.10;79.90
46562;DHT22;32289;42.688;23.330;2023-06-19T06:48:08;25.90;71.10
46562;DHT22;32289;42.688;23.330;2023-06-19T06:51:49;25.50;73.20
46562;DHT22;32289;42.688;23.330;2023-06-19T06:55:35;24.90;73.50
46562;DHT22;32289;42.688;23.330;2023-06-19T06:59:16;25.70;74.20
46562;DHT22;32289;42.688;23.330;2023-06-19T07:02:57;26.40;71.70
46562;DHT22;32289;42.688;23.330;2023-06-19T07:06:37;26.30;73.30
46562;DHT22;32289;42.688;23.330;2023-06-19T07:14:55;25.00;73.10
46562;DHT22;32289;42.688;23.330;2023-06-19T12:13:11;27.40;57.20
46562;DHT22;32289;42.688;23.330;2023-06-19T12:16:52;26.60;59.20
46562;DHT22;32289;42.688;23.330;2023-06-19T12:20:32;26.50;59.50
46562;DHT22;32289;42.688;23.330;2023-06-19T12:24:13;26.20;60.50
46562;DHT22;32289;42.688;23.330;2023-06-19T12:27:56;26.30;62.20
46562;DHT22;32289;42.688;23.330;2023-06-19T12:31:36;27.00;60.90
46562;DHT22;32289;42.688;23.330;2023-06-19T12:35:17;27.10;58.70
46562;DHT22;32289;42.688;23.330;2023-06-19T12:38:59;27.30;58.90
46562;DHT22;32289;42.688;23.330;2023-06-19T12:42:40;27.30;58.70
46562;DHT22;32289;42.688;23.330;2023-06-19T12:46:21;27.70;58.10
46562;DHT22;32289;42.688;23.330;2023-06-19T12:50:03;27.60;58.60
46562;DHT22;32289;42.688;23.330;2023-06-19T12:53:44;27.10;58.20
46562;DHT22;32289;42.688;23.330;2023-06-19T12:57:25;27.10;57.90
46562;DHT22;32289;42.688;23.330;2023-06-19T13:01:05;27.00;57.80
46562;DHT22;32289;42.688;23.330;2023-06-19T13:04:46;26.70;57.80
46562;DHT22;32289;42.688;23.330;2023-06-19T13:08:27;27.20;57.70
46562;DHT22;32289;42.688;23.330;2023-06-19T13:12:08;27.30;56.80
46562;DHT22;32289;42.688;23.330;2023-06-19T13:15:48;26.80;56.40
46562;DHT22;32289;42.688;23.330;2023-06-19T13:19:29;26.90;56.90
46562;DHT22;32289;42.688;23.330;2023-06-19T13:23:10;26.90;57.30
46562;DHT22;32289;42.688;23.330;2023-06-19T13:26:51;26.90;56.10
46562;DHT22;32289;42.688;23.330;2023-06-19T13:30:31;27.00;56.20
46562;DHT22;32289;42.688;23.330;2023-06-19T13:34:12;27.10;54.60
46562;DHT22;32289;42.688;23.330;2023-06-19T13:37:53;27.50;54.60
46562;DHT22;32289;42.688;23.330;2023-06-19T13:41:33;27.40;55.10
46562;DHT22;32289;42.688;23.330;2023-06-19T13:45:14;27.40;54.20
46562;DHT22;32289;42.688;23.330;2023-06-19T13:48:55;27.40;54.70
46562;DHT22;32289;42.688;23.330;2023-06-19T13:52:36;27.30;53.20
46562;DHT22;32289;42.688;23.330;2023-06-19T13:56:18;26.70;53.60
46562;DHT22;32289;42.688;23.330;2023-06-19T13:59:59;26.50;54.80
46562;DHT22;32289;42.688;23.330;2023-06-19T14:03:39;26.90;55.10
46562;DHT22;32289;42.688;23.330;2023-06-19T14:07:20;26.70;54.10
46562;DHT22;32289;42.688;23.330;2023-06-19T14:11:03;26.80;54.40
46562;DHT22;32289;42.688;23.330;2023-06-19T14:14:44;27.10;53.00
46562;DHT22;32289;42.688;23.330;2023-06-19T14:18:25;27.30;53.60
46562;DHT22;32289;42.688;23.330;2023-06-19T14:22:05;27.20;53.60
46562;DHT22;32289;42.688;23.330;2023-06-19T14:25:46;27.20;52.60
46562;DHT22;32289;42.688;23.330;2023-06-19T14:29:27;27.20;53.40
46562;DHT22;32289;42.688;23.330;2023-06-19T14:33:08;26.80;53.60
46562;DHT22;32289;42.688;23.330;2023-06-19T14:36:55;26.90;54.20
46562;DHT22;32289;42.688;23.330;2023-06-19T14:40:35;26.90;53.70
46562;DHT22;32289;42.688;23.330;2023-06-19T14:44:16;27.00;55.60
46562;DHT22;32289;42.688;23.330;2023-06-19T14:47:58;27.10;54.80
46562;DHT22;32289;42.688;23.330;2023-06-19T14:51:39;27.10;54.60
46562;DHT22;32289;42.688;23.330;2023-06-19T14:55:20;27.20;53.70
46562;DHT22;32289;42.688;23.330;2023-06-19T14:59:01;26.90;54.30
46562;DHT22;32289;42.688;23.330;2023-06-19T15:02:42;27.00;56.50
46562;DHT22;32289;42.688;23.330;2023-06-19T15:06:48;26.80;56.20
46562;DHT22;32289;42.688;23.330;2023-06-19T15:10:29;26.80;56.90
46562;DHT22;32289;42.688;23.330;2023-06-19T15:14:09;26.50;57.30
46562;DHT22;32289;42.688;23.330;2023-06-19T15:17:53;26.50;57.30
46562;DHT22;32289;42.688;23.330;2023-06-19T15:21:34;26.40;58.90
46562;DHT22;32289;42.688;23.330;2023-06-19T15:29:51;26.40;57.70
46562;DHT22;32289;42.688;23.330;2023-06-19T15:33:42;26.40;59.40
46562;DHT22;32289;42.688;23.330;2023-06-19T15:37:23;26.30;59.70
46562;DHT22;32289;42.688;23.330;2023-06-19T15:41:04;26.00;59.20
46562;DHT22;32289;42.688;23.330;2023-06-19T15:49:24;25.90;60.90
46562;DHT22;32289;42.688;23.330;2023-06-19T15:53:05;26.00;60.70
46562;DHT22;32289;42.688;23.330;2023-06-19T15:56:45;25.50;61.10
46562;DHT22;32289;42.688;23.330;2023-06-19T16:00:26;25.30;61.80
46562;DHT22;32289;42.688;23.330;2023-06-19T16:04:07;25.30;63.30
46562;DHT22;32289;42.688;23.330;2023-06-19T16:07:47;25.50;62.90
46562;DHT22;32289;42.688;23.330;2023-06-19T16:11:28;25.50;62.70
46562;DHT22;32289;42.688;23.330;2023-06-19T16:15:09;25.30;63.10
46562;DHT22;32289;42.688;23.330;2023-06-19T16:18:53;25.20;62.90
46562;DHT22;32289;42.688;23.330;2023-06-19T16:22:34;25.10;62.60
46562;DHT22;32289;42.688;23.330;2023-06-19T16:26:16;24.90;61.40
46562;DHT22;32289;42.688;23.330;2023-06-19T16:29:56;25.00;60.90
46562;DHT22;32289;42.688;23.330;2023-06-19T16:33:37;25.00;60.80
46562;DHT22;32289;42.688;23.330;2023-06-19T16:37:19;25.00;59.50
46562;DHT22;32289;42.688;23.330;2023-06-19T16:40:59;25.00;59.80
46562;DHT22;32289;42.688;23.330;2023-06-19T16:44:40;24.90;57.80
46562;DHT22;32289;42.688;23.330;2023-06-19T16:48:21;25.00;59.20
46562;DHT22;32289;42.688;23.330;2023-06-19T16:52:01;25.00;60.10
46562;DHT22;32289;42.688;23.330;2023-06-19T16:55:42;24.90;60.90
46562;DHT22;32289;42.688;23.330;2023-06-19T16:59:23;24.80;62.40
46562;DHT22;32289;42.688;23.330;2023-06-19T17:03:03;24.80;63.10
46562;DHT22;32289;42.688;23.330;2023-06-19T17:06:44;24.60;63.70
46562;DHT22;32289;42.688;23.330;2023-06-19T17:10:25;24.60;65.00
46562;DHT22;32289;42.688;23.330;2023-06-19T17:14:07;24.50;66.20
46562;DHT22;32289;42.688;23.330;2023-06-19T17:17:48;24.30;66.30
46562;DHT22;32289;42.688;23.330;2023-06-19T17:21:29;24.30;67.40
46562;DHT22;32289;42.688;23.330;2023-06-19T17:25:10;24.40;68.00
46562;DHT22;32289;42.688;23.330;2023-06-19T17:28:51;24.30;68.80
46562;DHT22;32289;42.688;23.330;2023-06-19T17:32:32;24.10;68.50
46562;DHT22;32289;42.688;23.330;2023-06-19T17:36:13;24.10;70.10
46562;DHT22;32289;42.688;23.330;2023-06-19T17:39:54;24.00;70.90
46562;DHT22;32289;42.688;23.330;2023-06-19T17:43:35;24.00;71.50
46562;DHT22;32289;42.688;23.330;2023-06-19T17:47:16;24.00;71.40
46562;DHT22;32289;42.688;23.330;2023-06-19T17:50:56;23.80;71.70
46562;DHT22;32289;42.688;23.330;2023-06-19T17:54:37;23.70;73.30
46562;DHT22;32289;42.688;23.330;2023-06-19T17:58:18;23.60;74.40
46562;DHT22;32289;42.688;23.330;2023-06-19T18:01:58;23.40;75.60
46562;DHT22;32289;42.688;23.330;2023-06-19T18:05:39;23.40;75.40
46562;DHT22;32289;42.688;23.330;2023-06-19T18:09:20;23.20;77.10
46562;DHT22;32289;42.688;23.330;2023-06-19T18:13:03;23.20;76.30
46562;DHT22;32289;42.688;23.330;2023-06-19T18:16:43;22.90;77.30
46562;DHT22;32289;42.688;23.330;2023-06-19T18:20:24;22.80;79.60
46562;DHT22;32289;42.688;23.330;2023-06-19T18:24:05;22.60;80.70
46562;DHT22;32289;42.688;23.330;2023-06-19T18:27:45;22.70;81.70
46562;DHT22;32289;42.688;23.330;2023-06-19T18:31:26;22.80;81.20
46562;DHT22;32289;42.688;23.330;2023-06-19T18:35:07;22.80;82.50
46562;DHT22;32289;42.688;23.330;2023-06-19T18:38:48;22.60;84.80
46562;DHT22;32289;42.688;23.330;2023-06-19T18:42:29;22.60;85.60
46562;DHT22;32289;42.688;23.330;2023-06-19T18:46:11;22.30;87.40
46562;DHT22;32289;42.688;23.330;2023-06-19T18:49:52;22.30;88.80
46562;DHT22;32289;42.688;23.330;2023-06-19T18:53:32;22.20;89.40
46562;DHT22;32289;42.688;23.330;2023-06-19T18:57:13;22.10;90.40
46562;DHT22;32289;42.688;23.330;2023-06-19T19:00:54;21.90;90.70
46562;DHT22;32289;42.688;23.330;2023-06-19T19:04:35;21.80;92.20
46562;DHT22;32289;42.688;23.330;2023-06-19T19:08:17;21.80;92.20
46562;DHT22;32289;42.688;23.330;2023-06-19T19:11:58;21.80;92.40
46562;DHT22;32289;42.688;23.330;2023-06-19T19:15:39;21.70;92.30
46562;DHT22;32289;42.688;23.330;2023-06-19T19:19:19;21.60;93.30
46562;DHT22;32289;42.688;23.330;2023-06-19T19:23:00;21.60;94.00
46562;DHT22;32289;42.688;23.330;2023-06-19T19:26:42;21.50;93.70
46562;DHT22;32289;42.688;23.330;2023-06-19T19:30:23;21.30;94.60
46562;DHT22;32289;42.688;23.330;2023-06-19T19:34:04;21.30;94.40
46562;DHT22;32289;42.688;23.330;2023-06-19T19:37:44;21.20;95.10
46562;DHT22;32289;42.688;23.330;2023-06-19T19:41:25;21.10;95.90
46562;DHT22;32289;42.688;23.330;2023-06-19T19:45:06;21.10;96.10
46562;DHT22;32289;42.688;23.330;2023-06-19T19:48:47;21.10;97.20
46562;DHT22;32289;42.688;23.330;2023-06-19T19:52:27;21.00;98.30
46562;DHT22;32289;42.688;23.330;2023-06-19T19:56:08;20.90;99.00
46562;DHT22;32289;42.688;23.330;2023-06-19T19:59:49;20.90;99.20
46562;DHT22;32289;42.688;23.330;2023-06-19T20:03:30;20.80;99.50
46562;DHT22;32289;42.688;23.330;2023-06-19T20:07:11;20.70;99.30
46562;DHT22;32289;42.688;23.330;2023-06-19T20:10:52;20.60;99.90
46562;DHT22;32289;42.688;23.330;2023-06-19T20:14:33;20.50;99.90
46562;DHT22;32289;42.688;23.330;2023-06-19T20:18:13;20.40;99.90
46562;DHT22;32289;42.688;23.330;2023-06-19T20:21:54;20.30;99.90
46562;DHT22;32289;42.688;23.330;2023-06-19T20:25:34;20.20;99.90
46562;DHT22;32289;42.688;23.330;2023-06-19T20:29:15;20.10;99.90
46562;DHT22;32289;42.688;23.330;2023-06-19T20:32:56;19.90;99.90
46562;DHT22;32289;42.688;23.330;2023-06-19T20:36:36;19.80;99.90
46562;DHT22;32289;42.688;23.330;2023-06-19T20:40:17;19.70;99.90
46562;DHT22;32289;42.688;23.330;2023-06-19T20:43:58;19.70;99.90
46562;DHT22;32289;42.688;23.330;2023-06-19T20:47:38;19.60;99.90
46562;DHT22;32289;42.688;23.330;2023-06-19T20:51:19;19.50;99.90
46562;DHT22;32289;42.688;23.330;2023-06-19T20:55:01;19.60;99.90
46562;DHT22;32289;42.688;23.330;2023-06-19T20:58:42;19.60;99.90
46562;DHT22;32289;42.688;23.330;2023-06-19T21:02:22;19.50;99.90
46562;DHT22;32289;42.688;23.330;2023-06-19T21:06:03;19.50;99.90
46562;DHT22;32289;42.688;23.330;2023-06-19T21:09:44;19.40;99.90
46562;DHT22;32289;42.688;23.330;2023-06-19T21:13:24;19.40;99.90
46562;DHT22;32289;42.688;23.330;2023-06-19T21:17:06;19.40;99.90
46562;DHT22;32289;42.688;23.330;2023-06-19T21:20:47;19.30;99.90
46562;DHT22;32289;42.688;23.330;2023-06-19T21:24:28;19.10;99.90
46562;DHT22;32289;42.688;23.330;2023-06-19T21:28:09;19.00;99.90
46562;DHT22;32289;42.688;23.330;2023-06-19T21:31:50;18.90;99.90
46562;DHT22;32289;42.688;23.330;2023-06-19T21:35:30;18.80;99.90
46562;DHT22;32289;42.688;23.330;2023-06-19T21:39:11;18.70;99.90
46562;DHT22;32289;42.688;23.330;2023-06-19T21:42:52;18.50;99.90
46562;DHT22;32289;42.688;23.330;2023-06-19T21:46:32;18.40;99.90
46562;DHT22;32289;42.688;23.330;2023-06-19T21:50:13;18.40;99.90
46562;DHT22;32289;42.688;23.330;2023-06-19T21:53:54;18.20;99.90
46562;DHT22;32289;42.688;23.330;2023-06-19T21:57:37;18.20;99.90
46562;DHT22;32289;42.688;23.330;2023-06-19T22:01:23;18.10;99.90
46562;DHT22;32289;42.688;23.330;2023-06-19T22:05:06;18.00;99.90
46562;DHT22;32289;42.688;23.330;2023-06-19T22:08:47;18.00;99.90
46562;DHT22;32289;42.688;23.330;2023-06-19T22:12:28;18.00;99.90
46562;DHT22;32289;42.688;23.330;2023-06-19T22:16:09;17.90;99.90
46562;DHT22;32289;42.688;23.330;2023-06-19T22:19:50;17.80;99.90
46562;DHT22;32289;42.688;23.330;2023-06-19T22:23:30;17.90;99.90
46562;DHT22;32289;42.688;23.330;2023-06-19T22:31:45;17.80;99.90
46562;DHT22;32289;42.688;23.330;2023-06-19T22:35:25;17.60;99.90
46562;DHT22;32289;42.688;23.330;2023-06-19T22:39:06;17.60;99.90
46562;DHT22;32289;42.688;23.330;2023-06-19T22:43:11;17.50;99.90
46562;DHT22;32289;42.688;23.330;2023-06-19T22:51:29;17.60;99.90
46562;DHT22;32289;42.688;23.330;2023-06-19T22:55:10;17.60;99.90
46562;DHT22;32289;42.688;23.330;2023-06-19T22:58:50;17.50;99.90
46562;DHT22;32289;42.688;23.330;2023-06-19T23:07:08;17.50;99.90
46562;DHT22;32289;42.688;23.330;2023-06-19T23:11:02;17.40;99.90
46562;DHT22;32289;42.688;23.330;2023-06-19T23:14:43;17.40;99.90
46562;DHT22;32289;42.688;23.330;2023-06-19T23:18:24;17.40;99.90
46562;DHT22;32289;42.688;23.330;2023-06-19T23:22:05;17.50;99.90
46562;DHT22;32289;42.688;23.330;2023-06-19T23:25:46;17.30;99.90
46562;DHT22;32289;42.688;23.330;2023-06-19T23:29:28;17.20;99.90
46562;DHT22;32289;42.688;23.330;2023-06-19T23:33:12;17.00;99.90
46562;DHT22;32289;42.688;23.330;2023-06-19T23:45:54;16.80;99.90
46562;DHT22;32289;42.688;23.330;2023-06-19T23:49:34;16.90;99.90
